Time;durP1;ratioP1;P1;durP2;ratioP2;P2;SDS_P1;SDS_P2;PMS_P1;PMS_P2;Temp;Humidity;BMP_temperature;BMP_pressure;BME280_temperature;BME280_humidity;BME280_pressure;Samples;Min_cycle;Max_cycle;Signal;HPM_P1;HPM_P2
2022/04/26 03:36:33;;;;;;;22.65;18.77;;;;;;;9.24;98.49;100094.67;2706137;86;21051;-84
2022/04/26 03:40:34;;;;;;;27.17;21.45;;;;;;;9.07;99.56;100103.11;2670196;85;21055;-84
2022/04/26 03:44:36;;;;;;;27.05;21.82;;;;;;;9.10;100.00;100098.39;2741451;84;21122;-84
2022/04/26 03:48:37;;;;;;;25.72;21.87;;;;;;;9.13;100.00;100109.25;2759962;84;21063;-84
2022/04/26 03:52:41;;;;;;;27.30;22.67;;;;;;;9.19;100.00;100116.72;2861975;81;21034;-84
2022/04/26 03:56:42;;;;;;;28.85;20.60;;;;;;;9.22;100.00;100115.65;2845877;81;21037;-85
2022/04/26 04:00:44;;;;;;;25.92;22.10;;;;;;;9.22;99.63;100116.48;2835329;82;21031;-84
2022/04/26 04:04:46;;;;;;;22.60;18.25;;;;;;;9.25;99.34;100118.91;2842546;82;21062;-84
2022/04/26 04:08:47;;;;;;;21.85;17.77;;;;;;;9.23;98.83;100123.47;2835973;82;21033;-85
2022/04/26 04:12:48;;;;;;;22.40;17.05;;;;;;;9.20;98.52;100126.38;2860125;82;21042;-85
2022/04/26 04:16:49;;;;;;;22.55;17.87;;;;;;;9.20;98.45;100130.35;2848122;82;21752;-84
2022/04/26 04:20:50;;;;;;;20.92;16.42;;;;;;;9.24;99.18;100132.30;2863703;81;21030;-85
2022/04/26 04:24:51;;;;;;;23.60;13.98;;;;;;;9.30;98.51;100143.74;2846153;82;21771;-85
2022/04/26 04:28:52;;;;;;;21.95;16.25;;;;;;;9.29;97.66;100152.20;2828013;82;21309;-86
2022/04/26 04:32:53;;;;;;;22.00;15.00;;;;;;;9.32;97.99;100156.91;2843986;81;21033;-84
2022/04/26 04:36:54;;;;;;;18.80;14.28;;;;;;;9.34;97.52;100170.91;2854980;81;21622;-85
2022/04/26 04:40:55;;;;;;;16.60;14.73;;;;;;;9.31;97.64;100174.62;2801611;81;21041;-87
2022/04/26 04:44:56;;;;;;;18.73;14.55;;;;;;;9.36;98.17;100167.64;2865344;82;21084;-85
2022/04/26 04:48:57;;;;;;;19.45;12.80;;;;;;;9.37;97.63;100175.50;2844445;81;21542;-84
2022/04/26 04:52:58;;;;;;;15.20;13.60;;;;;;;9.41;97.65;100176.94;2841971;82;21037;-85
2022/04/26 04:57:03;;;;;;;18.90;13.38;;;;;;;9.39;97.17;100182.86;2856425;82;21586;-85
2022/04/26 05:01:05;;;;;;;17.50;11.65;;;;;;;9.44;97.01;100190.47;2839821;81;21060;-85
2022/04/26 05:05:07;;;;;;;19.50;13.60;;;;;;;9.50;96.45;100186.45;2846310;81;21109;-85
2022/04/26 05:09:08;;;;;;;21.65;15.08;;;;;;;9.51;95.68;100196.97;2847457;81;21069;-85
2022/04/26 05:13:09;;;;;;;23.77;13.15;;;;;;;9.63;95.58;100198.27;2826469;82;21027;-85
2022/04/26 05:17:10;;;;;;;26.50;18.52;;;;;;;9.75;94.73;100198.63;2850469;81;21629;-85
2022/04/26 05:21:16;;;;;;;17.73;13.68;;;;;;;9.93;95.75;100207.42;2850756;82;20996;-85
2022/04/26 05:25:17;;;;;;;14.90;11.95;;;;;;;10.06;93.04;100206.80;2814893;83;21023;-85
2022/04/26 05:29:18;;;;;;;16.17;14.23;;;;;;;10.17;92.36;100203.27;2840126;82;21557;-85
2022/04/26 05:33:20;;;;;;;19.70;14.13;;;;;;;10.35;93.11;100210.21;2840451;82;21100;-85
2022/04/26 05:37:21;;;;;;;20.32;14.70;;;;;;;10.53;92.32;100207.03;2811855;82;21103;-85
2022/04/26 05:41:22;;;;;;;19.50;13.00;;;;;;;10.61;90.59;100215.71;2836818;81;21025;-84
2022/04/26 05:45:25;;;;;;;19.82;14.10;;;;;;;10.67;89.54;100215.19;2850486;81;21017;-85
2022/04/26 05:49:26;;;;;;;13.90;12.50;;;;;;;10.78;89.88;100215.62;2844639;81;21415;-85
2022/04/26 05:53:27;;;;;;;16.87;12.47;;;;;;;10.82;88.42;100214.41;2863522;82;21010;-85
2022/04/26 05:57:28;;;;;;;17.98;14.33;;;;;;;10.94;88.70;100216.02;2863118;81;21041;-85
2022/04/26 06:01:29;;;;;;;22.42;15.05;;;;;;;11.09;88.66;100221.02;2864730;82;21018;-85
2022/04/26 06:05:30;;;;;;;14.78;13.28;;;;;;;11.28;87.82;100218.94;2843419;82;21086;-85
2022/04/26 06:09:32;;;;;;;20.88;16.80;;;;;;;11.40;86.03;100229.05;2836473;81;21081;-85
2022/04/26 06:13:33;;;;;;;20.30;16.60;;;;;;;11.55;85.31;100232.20;2862391;81;21501;-85
2022/04/26 06:17:34;;;;;;;26.75;17.48;;;;;;;11.78;85.08;100235.99;2847039;81;21089;-85
2022/04/26 06:21:35;;;;;;;23.42;18.12;;;;;;;12.05;84.09;100219.89;2844648;81;21029;-85
2022/04/26 06:25:38;;;;;;;18.37;14.05;;;;;;;12.35;83.97;100229.62;2842220;82;21037;-85
2022/04/26 06:29:40;;;;;;;21.17;16.77;;;;;;;12.70;81.13;100235.41;2835267;82;21066;-85
2022/04/26 06:33:41;;;;;;;21.93;16.73;;;;;;;13.03;81.12;100229.75;2847750;82;21029;-85
2022/04/26 06:37:43;;;;;;;25.02;16.45;;;;;;;13.24;78.32;100227.73;2808274;81;21369;-85
2022/04/26 06:41:44;;;;;;;21.73;16.62;;;;;;;13.33;77.64;100226.50;2846603;81;20966;-83
2022/04/26 06:45:49;;;;;;;18.57;13.45;;;;;;;13.47;76.14;100222.06;2836985;82;21129;-82
2022/04/26 06:49:50;;;;;;;20.08;13.70;;;;;;;13.31;75.73;100221.80;2837236;81;21513;-83
2022/04/26 06:53:51;;;;;;;16.12;13.18;;;;;;;13.36;75.80;100232.89;2848838;82;21621;-83
2022/04/26 06:57:52;;;;;;;17.62;14.10;;;;;;;13.49;75.06;100236.12;2830178;83;21065;-83
2022/04/26 07:01:54;;;;;;;19.85;13.75;;;;;;;13.59;75.82;100236.08;2850604;82;21581;-82
2022/04/26 07:05:55;;;;;;;16.67;12.50;;;;;;;13.74;76.57;100236.44;2846994;81;21608;-82
2022/04/26 07:09:56;;;;;;;14.33;11.63;;;;;;;13.85;75.61;100235.39;2837502;82;21161;-83
2022/04/26 07:13:58;;;;;;;17.37;11.57;;;;;;;13.92;74.07;100239.66;2856350;82;21030;-82
2022/04/26 07:17:58;;;;;;;13.78;10.53;;;;;;;13.76;74.76;100237.63;2813147;81;21026;-82
2022/04/26 07:22:02;;;;;;;17.60;10.18;;;;;;;13.68;73.97;100249.06;2833642;82;21058;-83
2022/04/26 07:26:03;;;;;;;18.62;11.25;;;;;;;13.35;73.70;100259.26;2842803;82;21026;-83
2022/04/26 07:30:05;;;;;;;15.05;10.10;;;;;;;13.41;77.59;100254.18;2802898;82;21073;-82
2022/04/26 07:34:21;;;;;;;13.00;10.00;;;;;;;13.45;74.22;100268.13;2838590;82;21044;-82
2022/04/26 07:38:23;;;;;;;11.83;9.68;;;;;;;13.24;72.66;100266.47;2815001;82;21049;-82
2022/04/26 07:42:24;;;;;;;15.18;10.53;;;;;;;13.35;77.22;100269.47;2831994;81;21058;-82
2022/04/26 07:46:25;;;;;;;14.80;10.85;;;;;;;13.74;76.86;100273.86;2842730;81;21346;-82
2022/04/26 07:50:28;;;;;;;15.88;11.48;;;;;;;13.97;76.77;100270.31;2861811;82;21041;-83
2022/04/26 07:54:29;;;;;;;17.42;11.10;;;;;;;14.06;73.35;100275.27;2839776;81;21042;-82
2022/04/26 07:58:30;;;;;;;14.85;11.63;;;;;;;14.16;73.90;100263.69;2852717;82;21826;-83
2022/04/26 08:02:31;;;;;;;16.25;11.75;;;;;;;14.26;73.87;100267.98;2849196;81;21029;-82
2022/04/26 08:06:32;;;;;;;11.15;10.03;;;;;;;14.19;74.53;100263.39;2848111;82;21525;-83
2022/04/26 08:10:35;;;;;;;12.82;11.03;;;;;;;14.16;72.97;100267.70;2847097;82;21550;-82
2022/04/26 08:14:36;;;;;;;15.53;13.28;;;;;;;14.19;74.04;100272.75;2849985;81;20998;-82
2022/04/26 08:18:37;;;;;;;12.68;11.35;;;;;;;14.35;75.62;100276.95;2840986;81;21474;-82
2022/04/26 08:22:38;;;;;;;14.95;11.68;;;;;;;14.26;71.52;100289.88;2832496;82;21026;-82
2022/04/26 08:31:00;;;;;;;10.43;8.70;;;;;;;14.60;74.70;100289.72;2856458;82;21166;-82
2022/04/26 08:35:01;;;;;;;16.20;12.23;;;;;;;14.67;69.33;100294.83;2846518;81;21557;-84
2022/04/26 08:39:03;;;;;;;13.03;10.40;;;;;;;14.61;71.98;100296.75;2848502;81;21065;-84
2022/04/26 08:43:04;;;;;;;11.93;9.48;;;;;;;14.78;72.53;100299.14;2852390;81;21027;-84
2022/04/26 08:51:25;;;;;;;13.05;9.75;;;;;;;14.93;72.51;100300.78;2844327;82;21531;-84
2022/04/26 08:55:27;;;;;;;16.70;10.75;;;;;;;14.87;69.82;100302.23;2855020;81;21059;-83
2022/04/26 08:59:30;;;;;;;12.78;10.15;;;;;;;15.12;72.46;100302.42;2851033;81;21354;-83
2022/04/26 09:03:56;;;;;;;13.72;10.78;;;;;;;15.41;70.29;100300.80;2852720;82;21042;-84
2022/04/26 09:07:58;;;;;;;10.45;8.85;;;;;;;15.23;68.78;100306.21;2831364;81;21064;-83
2022/04/26 09:12:00;;;;;;;12.45;8.68;;;;;;;15.28;71.51;100314.62;2872173;82;21561;-83
2022/04/26 09:16:02;;;;;;;10.25;7.70;;;;;;;15.66;71.56;100309.50;2846508;82;21015;-84
2022/04/26 09:20:04;;;;;;;13.20;9.93;;;;;;;15.81;67.80;100308.41;2847785;81;21038;-83
2022/04/26 09:24:07;;;;;;;12.43;8.00;;;;;;;15.93;67.67;100311.20;2851667;81;21100;-83
2022/04/26 09:28:08;;;;;;;10.70;9.10;;;;;;;16.02;66.18;100306.70;2778398;83;21646;-83
2022/04/26 09:32:10;;;;;;;9.70;7.05;;;;;;;16.05;68.88;100306.90;2832300;82;21006;-84
2022/04/26 09:36:12;;;;;;;7.03;6.33;;;;;;;16.33;70.28;100303.48;2848071;81;21018;-84
2022/04/26 09:40:13;;;;;;;10.50;7.97;;;;;;;16.56;65.28;100301.52;2842629;81;21685;-84
2022/04/26 09:44:14;;;;;;;8.83;7.45;;;;;;;16.58;69.92;100299.50;2861292;81;21458;-83
2022/04/26 09:48:21;;;;;;;7.47;6.53;;;;;;;16.96;66.19;100306.59;2856138;82;21087;-83
2022/04/26 09:52:22;;;;;;;9.23;8.28;;;;;;;17.03;63.04;100302.78;2842574;82;21629;-83
2022/04/26 09:56:27;;;;;;;10.68;8.55;;;;;;;17.24;68.30;100304.11;2860839;82;21056;-83
2022/04/26 10:00:29;;;;;;;8.03;6.50;;;;;;;17.28;66.38;100305.45;2853796;82;21050;-83
2022/04/26 10:04:31;;;;;;;9.53;6.12;;;;;;;17.10;64.83;100302.95;2852876;82;21088;-83
2022/04/26 10:08:35;;;;;;;8.95;5.25;;;;;;;17.14;65.88;100308.31;2848492;82;21367;-83
2022/04/26 10:12:37;;;;;;;5.75;5.10;;;;;;;17.26;64.29;100313.66;2839991;81;21022;-83
2022/04/26 10:16:39;;;;;;;9.25;7.35;;;;;;;17.23;64.43;100309.98;2846009;82;20998;-83
2022/04/26 10:20:41;;;;;;;10.75;6.87;;;;;;;16.83;65.44;100309.79;2859454;82;21088;-83
2022/04/26 10:25:09;;;;;;;7.28;6.50;;;;;;;16.68;66.77;100310.09;2861218;82;21074;-83
2022/04/26 10:29:15;;;;;;;9.43;6.28;;;;;;;16.69;66.30;100303.20;2854171;81;21553;-84
2022/04/26 10:33:38;;;;;;;7.00;5.53;;;;;;;16.74;66.37;100301.89;2856448;81;20998;-83
2022/04/26 10:37:39;;;;;;;7.05;5.37;;;;;;;16.91;66.54;100307.61;2865080;81;21001;-83
2022/04/26 10:41:44;;;;;;;9.18;5.33;;;;;;;16.81;62.98;100308.26;2845652;82;21029;-83
2022/04/26 10:46:10;;;;;;;9.95;5.58;;;;;;;16.60;62.91;100309.58;2847426;82;21026;-83
2022/04/26 10:50:17;;;;;;;7.05;5.40;;;;;;;16.64;63.88;100303.38;2824639;82;21669;-83
2022/04/26 10:54:58;;;;;;;5.22;4.72;;;;;;;16.79;61.53;100308.94;2822379;82;21073;-83
2022/04/26 10:58:59;;;;;;;5.53;4.95;;;;;;;16.95;63.12;100303.58;2855805;81;21052;-83
2022/04/26 11:03:04;;;;;;;6.12;5.33;;;;;;;17.26;61.08;100308.29;2847675;82;21045;-83
2022/04/26 11:07:12;;;;;;;6.90;5.50;;;;;;;17.45;62.53;100306.25;2847670;82;21079;-83
2022/04/26 11:11:13;;;;;;;9.15;7.28;;;;;;;17.41;61.63;100303.09;2853144;82;21014;-83
2022/04/26 11:15:21;;;;;;;6.67;5.90;;;;;;;17.28;63.17;100310.82;2783165;81;20979;-83
2022/04/26 11:19:31;;;;;;;6.97;5.47;;;;;;;17.28;63.21;100314.33;2830952;81;21000;-83
2022/04/26 11:28:00;;;;;;;5.60;5.05;;;;;;;17.34;64.21;100311.48;2858087;80;21030;-84
2022/04/26 11:32:01;;;;;;;8.93;5.42;;;;;;;17.48;62.94;100308.59;2821197;82;21065;-84
2022/04/26 11:36:04;;;;;;;6.60;5.92;;;;;;;17.85;66.43;100312.55;2856719;82;21058;-83
2022/04/26 11:40:07;;;;;;;6.65;5.95;;;;;;;18.21;61.73;100309.08;2813800;82;21125;-83
2022/04/26 11:44:08;;;;;;;5.95;5.35;;;;;;;18.67;61.12;100308.32;2846721;80;21026;-83
2022/04/26 11:48:15;;;;;;;5.83;5.33;;;;;;;18.91;59.89;100310.01;2851096;81;21027;-83
2022/04/26 11:52:23;;;;;;;6.55;4.33;;;;;;;18.67;59.54;100309.17;2850633;81;29777;-83
2022/04/26 11:56:24;;;;;;;7.10;4.58;;;;;;;18.35;58.78;100315.08;2859738;81;21042;-83
2022/04/26 12:00:26;;;;;;;4.85;4.20;;;;;;;18.11;60.17;100318.22;2839612;82;20986;-83
2022/04/26 12:04:27;;;;;;;5.33;4.85;;;;;;;17.95;58.09;100312.86;2829482;82;21078;-84
2022/04/26 12:08:35;;;;;;;7.12;4.75;;;;;;;17.79;58.90;100322.66;2842324;82;21010;-83
2022/04/26 12:12:56;;;;;;;6.03;5.17;;;;;;;17.60;59.34;100316.32;2844495;82;21034;-83
2022/04/26 12:16:57;;;;;;;5.67;5.10;;;;;;;17.54;62.46;100313.31;2848044;81;21079;-84
2022/04/26 12:21:02;;;;;;;7.08;4.83;;;;;;;17.49;62.25;100311.65;2847058;81;20990;-83
2022/04/26 12:25:09;;;;;;;5.40;4.55;;;;;;;17.31;59.74;100309.13;2857724;82;21050;-83
2022/04/26 12:29:13;;;;;;;5.10;4.58;;;;;;;17.32;60.76;100314.02;2854891;81;21071;-84
2022/04/26 12:33:36;;;;;;;5.67;5.08;;;;;;;17.35;60.95;100308.30;2858607;81;21041;-83
2022/04/26 12:37:38;;;;;;;7.15;5.28;;;;;;;17.53;59.39;100308.09;2853916;81;21096;-83
2022/04/26 12:41:56;;;;;;;5.25;4.60;;;;;;;17.75;58.80;100310.58;2869606;82;21061;-83
2022/04/26 12:46:03;;;;;;;5.55;4.42;;;;;;;17.91;60.55;100304.81;2847888;81;21023;-84
2022/04/26 12:50:28;;;;;;;5.20;4.05;;;;;;;17.99;59.57;100301.59;2851405;82;21001;-83
2022/04/26 12:54:30;;;;;;;6.65;6.05;;;;;;;17.95;58.29;100294.03;2847908;82;21062;-83
2022/04/26 12:58:37;;;;;;;5.80;4.70;;;;;;;17.79;59.92;100297.63;2846860;82;20980;-83
2022/04/26 13:02:38;;;;;;;7.08;4.78;;;;;;;17.73;60.15;100295.61;2851926;80;21011;-83
2022/04/26 13:06:39;;;;;;;8.23;5.12;;;;;;;17.70;59.98;100291.42;2836191;81;21063;-83
2022/04/26 13:10:41;;;;;;;7.10;5.20;;;;;;;17.68;60.51;100288.05;2867599;81;21080;-84
2022/04/26 13:14:42;;;;;;;7.35;4.65;;;;;;;17.67;59.58;100294.44;2842441;81;21037;-83
2022/04/26 13:18:44;;;;;;;6.78;4.33;;;;;;;17.63;60.86;100291.77;2850101;81;21504;-83
2022/04/26 13:22:45;;;;;;;6.08;4.20;;;;;;;17.65;62.72;100289.73;2849997;82;21542;-83
2022/04/26 13:26:46;;;;;;;4.67;4.28;;;;;;;17.60;60.63;100290.77;2838963;81;21071;-83
2022/04/26 13:30:48;;;;;;;4.95;3.90;;;;;;;17.43;59.69;100288.11;2803357;82;21000;-84
2022/04/26 13:34:50;;;;;;;6.15;5.05;;;;;;;17.35;61.24;100288.96;2864291;81;21033;-82
2022/04/26 13:38:51;;;;;;;6.28;4.67;;;;;;;17.29;60.67;100282.93;2854182;81;21052;-82
2022/04/26 13:42:52;;;;;;;7.67;5.22;;;;;;;17.17;60.98;100286.47;2805967;81;21829;-83
2022/04/26 13:46:53;;;;;;;6.78;5.58;;;;;;;17.13;60.07;100285.96;2853283;81;21642;-82
2022/04/26 13:50:54;;;;;;;8.00;4.95;;;;;;;17.16;59.77;100283.45;2858030;81;21090;-84
2022/04/26 13:54:55;;;;;;;4.70;4.20;;;;;;;17.17;59.99;100282.93;2847473;80;21066;-86
2022/04/26 13:58:56;;;;;;;4.10;3.70;;;;;;;17.24;61.43;100279.40;2865166;80;21055;-84
2022/04/26 14:02:57;;;;;;;8.75;5.12;;;;;;;17.26;60.19;100277.37;2852749;82;21046;-83
2022/04/26 14:06:59;;;;;;;7.72;4.92;;;;;;;17.21;62.45;100279.74;2834467;82;21039;-84
2022/04/26 14:11:00;;;;;;;16.10;5.75;;;;;;;17.15;61.08;100276.89;2874560;81;21058;-85
2022/04/26 14:23:42;;;;;;;7.37;5.03;;;;;;;16.99;60.96;100278.08;2818945;83;21059;-84
2022/04/26 14:27:49;;;;;;;5.03;4.42;;;;;;;16.88;61.27;100274.34;2843628;81;21085;-84
2022/04/26 14:31:51;;;;;;;6.22;4.33;;;;;;;16.80;63.10;100282.41;2852860;81;21040;-84
2022/04/26 14:35:53;;;;;;;8.93;4.53;;;;;;;16.74;61.57;100273.69;2846206;81;21752;-84
2022/04/26 14:39:54;;;;;;;7.47;5.53;;;;;;;16.61;60.57;100276.86;2806724;82;21049;-84
2022/04/26 14:43:56;;;;;;;7.25;5.35;;;;;;;16.54;63.06;100275.34;2796162;83;21069;-85
2022/04/26 14:47:58;;;;;;;7.12;5.08;;;;;;;16.54;62.64;100276.16;2840497;82;21056;-84
2022/04/26 14:52:00;;;;;;;5.78;5.20;;;;;;;16.46;61.48;100273.48;2856456;82;21028;-84
2022/04/26 14:56:01;;;;;;;6.53;5.17;;;;;;;16.39;60.50;100264.37;2858627;81;21370;-84
2022/04/26 15:00:06;;;;;;;5.42;4.47;;;;;;;16.32;62.32;100272.27;2834447;82;21012;-84
2022/04/26 15:04:07;;;;;;;5.62;4.58;;;;;;;16.23;59.97;100276.78;2849472;81;21039;-83
2022/04/26 15:16:49;;;;;;;8.10;4.83;;;;;;;16.16;61.41;100277.59;2841480;82;21030;-84
2022/04/26 15:20:53;;;;;;;7.40;4.17;;;;;;;16.23;62.16;100275.44;2858706;82;21090;-85
2022/04/26 15:24:54;;;;;;;5.22;4.60;;;;;;;16.26;60.32;100275.59;2854998;81;21048;-83
2022/04/26 15:28:56;;;;;;;7.45;5.37;;;;;;;16.31;62.93;100277.30;2860809;81;21072;-83
2022/04/26 15:32:57;;;;;;;9.25;6.22;;;;;;;16.34;60.49;100267.58;2817778;82;21542;-84
2022/04/26 15:36:58;;;;;;;10.48;6.35;;;;;;;16.40;61.15;100272.77;2859414;81;21032;-84
2022/04/26 15:41:05;;;;;;;10.25;7.55;;;;;;;16.44;63.53;100266.58;2851368;82;21544;-84
2022/04/26 15:45:06;;;;;;;5.58;4.85;;;;;;;16.47;62.50;100272.47;2848541;82;21078;-84
2022/04/26 15:49:07;;;;;;;7.60;6.70;;;;;;;16.50;61.26;100268.59;2868489;81;21037;-84
2022/04/26 15:53:08;;;;;;;8.50;7.03;;;;;;;16.42;60.76;100266.24;2863005;81;21445;-83
2022/04/26 15:57:11;;;;;;;9.28;7.28;;;;;;;16.36;61.69;100264.71;2845145;82;21207;-83
2022/04/26 16:01:12;;;;;;;8.83;6.95;;;;;;;16.34;61.59;100268.92;2832177;81;21014;-85
2022/04/26 16:05:14;;;;;;;10.00;8.63;;;;;;;16.31;62.00;100269.25;2852028;81;21553;-81
2022/04/26 16:22:16;;;;;;;8.78;6.20;;;;;;;16.41;62.94;100271.27;2852340;81;21527;-82
2022/04/26 16:26:19;;;;;;;11.90;8.08;;;;;;;16.41;65.63;100276.64;2842653;80;21618;-82
2022/04/26 16:30:20;;;;;;;19.12;13.25;;;;;;;16.45;64.83;100285.70;2846645;82;20986;-83
2022/04/26 16:34:21;;;;;;;34.98;23.47;;;;;;;16.36;65.52;100285.70;2813324;81;20972;-83
2022/04/26 16:38:22;;;;;;;37.53;21.50;;;;;;;16.25;66.75;100291.36;2683333;85;21046;-83
2022/04/26 16:42:23;;;;;;;25.72;17.48;;;;;;;16.29;68.62;100286.00;2840943;81;21031;-82
2022/04/26 16:46:25;;;;;;;20.65;13.22;;;;;;;16.36;67.91;100287.53;2847158;82;21118;-86
2022/04/26 16:50:27;;;;;;;27.13;17.10;;;;;;;16.44;69.10;100285.37;2852672;81;21038;-83
2022/04/26 16:54:28;;;;;;;21.80;15.15;;;;;;;16.39;67.93;100291.22;2830398;82;21097;-83
2022/04/26 16:58:31;;;;;;;21.15;16.93;;;;;;;16.39;68.68;100296.11;2847619;83;21002;-83
2022/04/26 17:02:33;;;;;;;22.20;17.23;;;;;;;16.45;69.86;100296.44;2848916;82;21061;-84
2022/04/26 17:06:34;;;;;;;24.10;15.80;;;;;;;16.51;68.50;100297.98;2864690;81;21067;-84
2022/04/26 17:10:35;;;;;;;20.25;16.82;;;;;;;16.53;69.01;100300.51;2855870;81;21313;-84
2022/04/26 17:14:37;;;;;;;18.98;12.80;;;;;;;16.55;69.13;100297.16;2848949;81;21515;-84
2022/04/26 17:18:41;;;;;;;16.10;13.03;;;;;;;16.45;67.25;100311.21;2843943;82;21014;-84
2022/04/26 17:22:44;;;;;;;15.10;13.55;;;;;;;16.19;69.16;100306.26;2710888;85;21066;-83
2022/04/26 17:26:45;;;;;;;18.55;14.95;;;;;;;16.14;70.36;100315.30;2791496;83;21034;-84
2022/04/26 17:30:46;;;;;;;14.20;10.63;;;;;;;16.14;70.24;100313.97;2794565;82;21492;-83
2022/04/26 17:34:47;;;;;;;13.50;11.75;;;;;;;16.16;70.63;100320.52;2792840;84;21113;-84
2022/04/26 17:38:48;;;;;;;6.40;5.78;;;;;;;16.18;70.45;100324.70;2804702;82;21028;-84
2022/04/26 17:42:49;;;;;;;5.70;4.70;;;;;;;16.16;71.81;100327.23;2840536;82;21430;-83
2022/04/26 17:46:51;;;;;;;6.30;4.83;;;;;;;16.06;72.08;100331.38;2857832;81;20964;-85
2022/04/26 17:50:52;;;;;;;5.30;4.80;;;;;;;15.88;71.58;100326.05;2851347;81;20968;-84
2022/04/26 17:59:12;;;;;;;22.45;18.65;;;;;;;15.33;73.40;100335.59;2800046;83;21028;-84
2022/04/26 18:03:14;;;;;;;37.93;29.45;;;;;;;15.24;73.91;100337.37;2777012;83;21067;-83
2022/04/26 18:07:15;;;;;;;21.15;18.57;;;;;;;15.17;73.20;100343.02;2726157;85;21052;-83
2022/04/26 18:11:16;;;;;;;12.33;10.40;;;;;;;15.05;72.95;100339.73;2704678;86;21075;-84
2022/04/26 18:15:17;;;;;;;11.18;9.75;;;;;;;14.90;71.38;100349.30;2660162;86;21038;-85
2022/04/26 18:19:18;;;;;;;12.20;10.13;;;;;;;14.75;71.39;100351.67;2645518;89;21093;-84
2022/04/26 18:23:19;;;;;;;20.10;14.85;;;;;;;14.68;71.49;100362.92;2652801;88;21069;-83
2022/04/26 18:27:21;;;;;;;20.60;15.15;;;;;;;14.54;71.05;100368.78;2600547;86;21103;-84
2022/04/26 18:31:26;;;;;;;20.23;15.55;;;;;;;14.39;70.71;100372.47;2728457;84;21066;-84
2022/04/26 18:35:27;;;;;;;19.07;14.40;;;;;;;14.25;71.31;100377.81;2693381;85;21143;-83
2022/04/26 18:39:29;;;;;;;27.48;20.12;;;;;;;14.09;71.48;100393.99;2685578;84;21046;-84
2022/04/26 18:43:30;;;;;;;27.85;22.00;;;;;;;14.01;71.12;100388.55;2756487;84;21077;-84
2022/04/26 18:47:31;;;;;;;30.62;20.70;;;;;;;13.90;71.47;100398.06;2779458;83;21086;-85
2022/04/26 18:51:33;;;;;;;26.55;21.17;;;;;;;13.72;71.63;100398.80;2738736;85;21109;-85
2022/04/26 18:55:34;;;;;;;26.55;19.73;;;;;;;13.54;72.12;100398.70;2816497;82;21055;-85
2022/04/26 18:59:35;;;;;;;47.20;32.10;;;;;;;13.43;73.28;100405.88;2805964;82;21035;-85
2022/04/26 19:03:36;;;;;;;48.42;35.43;;;;;;;13.38;73.85;100413.95;2844504;81;21008;-83
2022/04/26 19:07:38;;;;;;;46.50;33.02;;;;;;;13.26;74.90;100422.57;2842201;82;21052;-85
2022/04/26 19:15:59;;;;;;;35.20;25.68;;;;;;;13.10;75.94;100429.33;2864762;81;21027;-85
2022/04/26 19:20:00;;;;;;;37.03;26.12;;;;;;;13.08;75.87;100435.78;2826676;82;21075;-85
2022/04/26 19:24:01;;;;;;;33.38;23.07;;;;;;;12.89;76.19;100442.77;2833877;82;21500;-85
2022/04/26 19:28:03;;;;;;;40.70;28.02;;;;;;;12.75;76.08;100445.34;2833422;81;21059;-85
2022/04/26 19:32:05;;;;;;;78.10;49.67;;;;;;;12.69;76.59;100444.06;2837962;82;21008;-84
2022/04/26 19:36:07;;;;;;;66.70;48.48;;;;;;;12.67;76.54;100446.49;2817347;82;21655;-84
2022/04/26 19:40:09;;;;;;;57.33;40.23;;;;;;;12.66;76.26;100448.34;2836340;82;21019;-84
2022/04/26 19:44:10;;;;;;;52.60;37.95;;;;;;;12.59;75.58;100444.53;2826247;82;21011;-84
2022/04/26 19:48:12;;;;;;;70.42;49.77;;;;;;;12.49;76.27;100451.16;2848758;81;21050;-83
2022/04/26 19:52:13;;;;;;;47.58;32.95;;;;;;;12.50;76.72;100443.98;2843811;81;21117;-84
2022/04/26 19:56:14;;;;;;;49.45;33.28;;;;;;;12.46;75.63;100446.07;2835651;82;21094;-83
2022/04/26 20:00:16;;;;;;;48.40;34.53;;;;;;;12.25;75.32;100451.47;2812917;83;21530;-85
2022/04/26 20:04:17;;;;;;;48.83;34.65;;;;;;;11.95;75.96;100455.75;2841776;81;21103;-85
2022/04/26 20:08:19;;;;;;;64.15;41.18;;;;;;;11.79;76.79;100449.08;2861800;82;21072;-84
2022/04/26 20:12:20;;;;;;;54.80;35.20;;;;;;;11.42;77.90;100455.65;2841315;81;21027;-85
2022/04/26 20:16:22;;;;;;;52.73;35.92;;;;;;;11.05;78.05;100464.49;2850706;82;21097;-85
2022/04/26 20:20:23;;;;;;;50.78;35.33;;;;;;;10.89;80.02;100464.39;2852208;81;21018;-85
2022/04/26 20:24:25;;;;;;;49.93;35.28;;;;;;;10.86;80.27;100464.14;2757204;81;21014;-84
2022/04/26 20:32:46;;;;;;;70.57;45.73;;;;;;;10.59;80.58;100468.52;2856983;81;21010;-85
2022/04/26 20:36:47;;;;;;;66.20;40.88;;;;;;;10.64;80.29;100471.69;2848186;82;21038;-85
2022/04/26 20:40:48;;;;;;;57.55;37.85;;;;;;;10.55;79.67;100469.73;2848585;82;20985;-85
2022/04/26 20:44:50;;;;;;;89.20;53.02;;;;;;;10.48;80.71;100460.56;2813901;82;21496;-84
2022/04/26 20:48:51;;;;;;;92.37;64.30;;;;;;;10.47;81.55;100445.08;2851121;81;21022;-85
2022/04/26 20:52:52;;;;;;;79.53;51.85;;;;;;;10.53;81.94;100462.36;2839215;82;21079;-84
2022/04/26 20:56:53;;;;;;;62.90;40.43;;;;;;;10.59;80.98;100470.35;2817662;82;21083;-85
2022/04/26 21:00:54;;;;;;;46.80;32.03;;;;;;;10.54;79.20;100476.03;2853979;82;21049;-85
2022/04/26 21:04:56;;;;;;;54.58;39.23;;;;;;;10.20;79.26;100486.12;2851428;81;21057;-85
2022/04/26 21:08:58;;;;;;;60.63;42.43;;;;;;;10.10;80.07;100483.80;2852921;81;20987;-85
2022/04/26 21:17:19;;;;;;;50.73;33.65;;;;;;;9.94;80.95;100485.00;2847698;81;21066;-86
2022/04/26 21:21:20;;;;;;;49.08;37.42;;;;;;;9.73;82.68;100486.12;2848953;81;21015;-86
2022/04/26 21:25:21;;;;;;;60.92;38.20;;;;;;;9.74;83.21;100493.63;2842760;81;21017;-86
2022/04/26 21:29:23;;;;;;;36.88;27.85;;;;;;;9.58;83.72;100489.46;2839680;82;21061;-85
2022/04/26 21:33:24;;;;;;;44.73;32.13;;;;;;;9.49;84.29;100484.81;2847679;81;21065;-85
2022/04/26 21:37:26;;;;;;;41.68;28.60;;;;;;;9.48;84.26;100485.31;2798076;82;21075;-85
2022/04/26 21:41:27;;;;;;;40.10;26.07;;;;;;;9.56;84.04;100490.89;2856720;82;21038;-85
2022/04/26 21:45:28;;;;;;;22.13;15.98;;;;;;;9.67;83.41;100489.25;2841516;82;21002;-86
2022/04/26 21:53:49;;;;;;;32.28;24.47;;;;;;;9.60;82.53;100492.84;2856833;81;21075;-86
2022/04/26 21:57:51;;;;;;;28.57;23.10;;;;;;;9.51;82.47;100493.52;2843171;82;21010;-86
2022/04/26 22:01:52;;;;;;;44.40;29.45;;;;;;;9.47;82.41;100500.88;2818904;81;21025;-85
2022/04/26 22:05:53;;;;;;;75.85;42.95;;;;;;;9.29;82.73;100505.25;2846516;82;20999;-85
2022/04/26 22:09:54;;;;;;;78.35;45.10;;;;;;;9.04;86.04;100503.53;2848803;81;21022;-85
2022/04/26 22:13:55;;;;;;;81.95;43.92;;;;;;;8.76;89.12;100502.00;2846570;80;21008;-85
2022/04/26 22:17:57;;;;;;;38.23;24.63;;;;;;;8.65;88.10;100509.39;2839795;82;20966;-85
2022/04/26 22:21:58;;;;;;;21.80;15.23;;;;;;;8.78;87.89;100508.03;2851158;81;21085;-85
2022/04/26 22:26:01;;;;;;;20.75;13.95;;;;;;;8.74;83.52;100520.66;2876009;82;21072;-86
2022/04/26 22:30:04;;;;;;;13.53;10.08;;;;;;;8.66;82.87;100521.69;2829989;82;21050;-85
2022/04/26 22:34:05;;;;;;;14.18;12.07;;;;;;;8.44;81.31;100530.61;2850314;82;21030;-85
2022/04/26 22:38:06;;;;;;;15.32;11.43;;;;;;;8.25;82.29;100538.13;2853151;82;21090;-85
2022/04/26 22:42:07;;;;;;;16.60;11.43;;;;;;;8.25;83.41;100539.45;2812951;82;21041;-85
2022/04/26 22:46:09;;;;;;;18.75;14.63;;;;;;;8.32;83.81;100536.78;2850047;82;21019;-85
2022/04/26 22:50:10;;;;;;;17.73;12.82;;;;;;;8.40;84.47;100534.44;2840397;82;21083;-85
2022/04/26 22:54:11;;;;;;;18.55;15.43;;;;;;;8.48;84.82;100533.08;2834668;82;21059;-85
2022/04/26 22:58:17;;;;;;;23.47;15.08;;;;;;;8.60;84.99;100543.34;2835404;81;21081;-85
2022/04/26 23:02:15;;;;;;;16.60;14.25;;;;;;;8.49;84.00;100547.53;2834585;82;21042;-86
2022/04/26 23:06:17;;;;;;;17.80;14.33;;;;;;;8.33;84.43;100542.45;2846370;81;21040;-85
2022/04/26 23:10:18;;;;;;;18.52;15.95;;;;;;;8.34;84.37;100544.14;2837130;82;21605;-85
2022/04/26 23:14:19;;;;;;;22.87;14.68;;;;;;;8.39;83.90;100552.63;2758112;82;21096;-85